Time;durP1;ratioP1;P1;durP2;ratioP2;P2;SDS_P1;SDS_P2;PMS_P1;PMS_P2;Temp;Humidity;BMP_temperature;BMP_pressure;BME280_temperature;BME280_humidity;BME280_pressure;Samples;Min_cycle;Max_cycle;Signal;HPM_P1;HPM_P2
2022/09/02 00:00:42;;;;;;;12.57;6.80;;;15.90;81.70;;;;;;5076978;28;21035;-62
2022/09/02 00:03:09;;;;;;;18.63;12.03;;;15.80;81.60;;;;;;5070577;28;20509;-62
2022/09/02 00:05:36;;;;;;;14.63;9.33;;;15.60;81.30;;;;;;5075073;28;20672;-62
2022/09/02 00:08:04;;;;;;;10.50;6.80;;;15.50;82.00;;;;;;5072635;28;20745;-62
2022/09/02 00:10:31;;;;;;;18.37;11.07;;;15.40;81.90;;;;;;5071864;28;20825;-61
2022/09/02 00:12:58;;;;;;;22.63;12.97;;;15.30;82.80;;;;;;5065927;28;20487;-61
2022/09/02 00:15:26;;;;;;;11.67;8.60;;;15.30;83.20;;;;;;5070458;28;20502;-61
2022/09/02 00:17:53;;;;;;;24.10;12.38;;;15.20;82.70;;;;;;5073677;28;20474;-61
2022/09/02 00:20:20;;;;;;;12.53;8.50;;;15.30;82.70;;;;;;5074821;28;20329;-62
2022/09/02 00:22:47;;;;;;;8.10;6.50;;;15.30;83.00;;;;;;5072662;28;21623;-62
2022/09/02 00:25:14;;;;;;;18.07;9.80;;;15.40;83.00;;;;;;5074294;28;20473;-61
2022/09/02 00:27:40;;;;;;;16.23;9.73;;;15.40;83.60;;;;;;5074531;28;20513;-61
2022/09/02 00:30:08;;;;;;;13.07;8.57;;;15.40;83.70;;;;;;5070597;28;20760;-62
2022/09/02 00:32:36;;;;;;;14.23;9.80;;;15.40;81.90;;;;;;5074140;28;20485;-62
2022/09/02 00:35:03;;;;;;;21.43;13.83;;;15.50;82.50;;;;;;5070980;28;20482;-61
2022/09/02 00:37:29;;;;;;;13.88;10.00;;;15.40;83.00;;;;;;5072167;28;20732;-62
2022/09/02 00:39:56;;;;;;;22.47;13.77;;;15.30;82.60;;;;;;5072381;28;20255;-61
2022/09/02 00:42:24;;;;;;;13.30;9.20;;;15.30;82.70;;;;;;5072909;28;20482;-62
2022/09/02 00:44:52;;;;;;;15.27;9.57;;;15.30;83.00;;;;;;5068765;28;20463;-62
2022/09/02 00:47:20;;;;;;;15.87;10.77;;;15.30;83.10;;;;;;5072448;28;20497;-62
2022/09/02 00:49:53;;;;;;;11.77;8.00;;;15.30;83.80;;;;;;5072916;28;20864;-61
2022/09/02 00:52:24;;;;;;;16.87;11.10;;;15.30;84.30;;;;;;5073415;28;20477;-61
2022/09/02 00:54:56;;;;;;;19.97;10.43;;;15.40;84.80;;;;;;5064395;28;21111;-61
2022/09/02 00:57:27;;;;;;;11.90;8.60;;;15.40;85.40;;;;;;5061217;28;20477;-62
2022/09/02 01:00:01;;;;;;;24.93;14.43;;;15.30;83.00;;;;;;5055032;28;20474;-62
2022/09/02 01:02:30;;;;;;;13.53;10.23;;;15.20;83.20;;;;;;5054093;28;20664;-62
2022/09/02 01:04:59;;;;;;;26.87;15.00;;;15.20;84.00;;;;;;5075376;28;21022;-62
2022/09/02 01:07:28;;;;;;;17.23;10.30;;;15.20;84.50;;;;;;5071238;28;20639;-62
2022/09/02 01:09:56;;;;;;;22.17;10.00;;;15.20;84.60;;;;;;5060008;28;20480;-61
2022/09/02 01:12:23;;;;;;;15.83;9.40;;;15.20;84.60;;;;;;5072647;28;20421;-62
2022/09/02 01:14:50;;;;;;;13.00;9.10;;;15.10;82.40;;;;;;5066111;28;20599;-62
2022/09/02 01:17:19;;;;;;;9.23;7.10;;;15.00;82.40;;;;;;5080258;28;20243;-62
2022/09/02 01:19:48;;;;;;;11.80;8.00;;;14.90;82.10;;;;;;5072623;28;20822;-62
2022/09/02 01:22:19;;;;;;;15.67;9.73;;;14.80;82.50;;;;;;5071570;28;20485;-61
2022/09/02 01:24:46;;;;;;;12.63;9.33;;;14.80;83.10;;;;;;5057394;28;20490;-61
2022/09/02 01:27:16;;;;;;;12.77;8.50;;;14.70;82.60;;;;;;5080102;28;20479;-61
2022/09/02 01:29:43;;;;;;;11.07;8.33;;;14.60;82.80;;;;;;5069712;28;20478;-61
2022/09/02 01:32:10;;;;;;;16.20;10.07;;;14.60;82.80;;;;;;5066180;28;21014;-61
2022/09/02 01:34:37;;;;;;;13.43;8.33;;;14.50;83.50;;;;;;5079765;28;20517;-61
2022/09/02 01:37:04;;;;;;;21.97;12.30;;;14.50;82.50;;;;;;5071911;28;20490;-61
2022/09/02 01:39:32;;;;;;;17.20;9.20;;;14.40;82.80;;;;;;5071637;28;20474;-61
2022/09/02 01:41:59;;;;;;;21.13;13.30;;;14.30;83.00;;;;;;5070832;28;20864;-61
2022/09/02 01:44:27;;;;;;;10.50;7.57;;;14.30;83.10;;;;;;5070522;28;20545;-61
2022/09/02 01:46:54;;;;;;;16.37;11.90;;;14.30;83.40;;;;;;5071738;28;20574;-62
2022/09/02 01:49:21;;;;;;;15.60;10.30;;;14.30;84.00;;;;;;5076470;28;20510;-61
2022/09/02 01:51:48;;;;;;;9.93;7.53;;;14.30;83.90;;;;;;5071144;28;20489;-61
2022/09/02 01:54:15;;;;;;;17.60;9.67;;;14.30;84.10;;;;;;5065643;28;20488;-61
2022/09/02 01:56:43;;;;;;;11.67;7.87;;;14.40;84.00;;;;;;5080398;28;20520;-62
2022/09/02 01:59:13;;;;;;;13.07;9.00;;;14.40;84.50;;;;;;5071143;28;20654;-62
2022/09/02 02:01:40;;;;;;;15.00;9.60;;;14.30;82.90;;;;;;5071860;28;20567;-62
2022/09/02 02:04:07;;;;;;;19.40;12.23;;;14.30;83.50;;;;;;5067996;28;20482;-61
2022/09/02 02:06:35;;;;;;;13.83;10.10;;;14.30;84.10;;;;;;5068720;28;20327;-61
2022/09/02 02:09:01;;;;;;;19.30;13.33;;;14.30;84.70;;;;;;5070936;28;20563;-62
2022/09/02 02:11:28;;;;;;;18.63;11.80;;;14.40;86.20;;;;;;5067797;28;20789;-61
2022/09/02 02:13:56;;;;;;;13.10;9.67;;;14.40;86.60;;;;;;5053253;28;20483;-62
2022/09/02 02:16:23;;;;;;;14.10;10.57;;;14.50;87.20;;;;;;5047453;28;20481;-61
2022/09/02 02:18:50;;;;;;;14.33;10.53;;;14.50;87.70;;;;;;5060877;28;20514;-62
2022/09/02 02:21:16;;;;;;;14.70;9.47;;;14.60;87.20;;;;;;5050892;28;20483;-61
2022/09/02 02:23:43;;;;;;;13.27;9.53;;;14.60;87.30;;;;;;5047421;28;20476;-61
2022/09/02 02:26:10;;;;;;;14.73;10.65;;;14.70;86.90;;;;;;5057926;28;20481;-61
2022/09/02 02:28:37;;;;;;;13.23;9.40;;;14.70;86.70;;;;;;5054629;28;20240;-61
2022/09/02 02:31:06;;;;;;;19.80;13.43;;;14.70;87.30;;;;;;5053991;28;20479;-61
2022/09/02 02:33:34;;;;;;;14.95;10.80;;;14.70;86.60;;;;;;5048444;28;20991;-61
2022/09/02 02:36:03;;;;;;;12.00;8.50;;;14.60;84.40;;;;;;5046080;28;20297;-61
2022/09/02 02:38:30;;;;;;;13.20;10.00;;;14.30;83.20;;;;;;5067095;28;20496;-61
2022/09/02 02:40:57;;;;;;;17.30;11.80;;;14.20;83.60;;;;;;5056044;28;20548;-61
2022/09/02 02:43:24;;;;;;;15.00;10.33;;;14.10;83.70;;;;;;5060265;28;20494;-61
2022/09/02 02:45:53;;;;;;;12.20;9.23;;;14.00;83.90;;;;;;5057163;28;20794;-61
2022/09/02 02:48:21;;;;;;;15.00;9.97;;;14.00;84.10;;;;;;5060659;28;20666;-61
2022/09/02 02:50:48;;;;;;;8.77;7.47;;;14.00;84.30;;;;;;5050816;28;20487;-61
2022/09/02 02:53:16;;;;;;;14.40;9.47;;;14.00;84.20;;;;;;5050787;28;21010;-61
2022/09/02 02:55:43;;;;;;;12.40;9.27;;;13.90;84.30;;;;;;5053258;28;20495;-61
2022/09/02 02:58:10;;;;;;;10.20;7.35;;;13.90;83.60;;;;;;5068037;28;20474;-61
2022/09/02 03:00:37;;;;;;;13.07;8.77;;;13.90;84.60;;;;;;5053709;28;20237;-62
2022/09/02 03:03:06;;;;;;;16.70;11.03;;;13.90;84.80;;;;;;5050754;28;20518;-62
2022/09/02 03:05:36;;;;;;;18.50;11.03;;;13.90;86.00;;;;;;5064469;28;20490;-61
2022/09/02 03:08:05;;;;;;;24.63;14.33;;;13.90;86.80;;;;;;5065143;28;20563;-61
2022/09/02 03:10:32;;;;;;;20.17;11.27;;;13.90;87.00;;;;;;5052631;28;20903;-61
2022/09/02 03:12:59;;;;;;;20.70;13.93;;;13.90;87.60;;;;;;5053794;28;20525;-61
2022/09/02 03:15:26;;;;;;;15.07;10.87;;;13.90;86.90;;;;;;5047924;28;20834;-61
2022/09/02 03:17:54;;;;;;;17.00;11.73;;;14.00;87.40;;;;;;5055996;28;20487;-61
2022/09/02 03:20:21;;;;;;;16.07;10.37;;;14.00;87.30;;;;;;5052041;28;20469;-61
2022/09/02 03:22:50;;;;;;;11.63;8.32;;;14.00;87.80;;;;;;5054938;28;20871;-61
2022/09/02 03:25:19;;;;;;;13.07;9.00;;;14.00;88.20;;;;;;5052208;28;20248;-61
2022/09/02 03:27:47;;;;;;;13.40;9.63;;;14.00;87.50;;;;;;5049316;28;21030;-62
2022/09/02 03:30:16;;;;;;;13.50;10.40;;;14.00;87.50;;;;;;5061194;28;20977;-60
2022/09/02 03:32:43;;;;;;;15.10;9.13;;;14.10;87.60;;;;;;5037788;28;20519;-61
2022/09/02 03:35:14;;;;;;;14.90;9.88;;;14.10;87.10;;;;;;5074803;28;20762;-61
2022/09/02 03:37:41;;;;;;;14.53;10.93;;;14.10;87.70;;;;;;5073610;28;20251;-61
2022/09/02 03:40:13;;;;;;;11.87;9.10;;;14.10;86.70;;;;;;5072501;28;20490;-61
2022/09/02 03:42:40;;;;;;;13.07;8.67;;;14.00;84.30;;;;;;5074551;28;20825;-62
2022/09/02 03:45:09;;;;;;;16.87;11.40;;;13.90;83.50;;;;;;5071587;28;20481;-61
2022/09/02 03:47:39;;;;;;;14.03;9.60;;;13.90;84.20;;;;;;5074542;28;20500;-61
2022/09/02 03:50:06;;;;;;;18.20;12.40;;;13.80;84.90;;;;;;5073330;28;20818;-61
2022/09/02 03:52:33;;;;;;;15.67;10.20;;;13.70;85.30;;;;;;5072668;28;20803;-61
2022/09/02 03:55:00;;;;;;;21.47;14.40;;;13.60;83.50;;;;;;5070697;28;21030;-62
2022/09/02 03:57:28;;;;;;;12.43;9.37;;;13.60;83.30;;;;;;5074753;28;20593;-61
2022/09/02 03:59:54;;;;;;;15.47;10.47;;;13.20;83.40;;;;;;5072471;28;20884;-61
2022/09/02 04:02:21;;;;;;;12.50;8.73;;;13.00;85.10;;;;;;5070209;28;20622;-60
2022/09/02 04:04:48;;;;;;;13.27;8.60;;;12.90;86.60;;;;;;5065796;28;20489;-61
2022/09/02 04:07:15;;;;;;;13.93;9.73;;;12.90;86.70;;;;;;5083065;28;20611;-61
2022/09/02 04:09:42;;;;;;;12.87;8.13;;;12.90;86.20;;;;;;5073171;28;20505;-61
2022/09/02 04:12:09;;;;;;;18.73;11.40;;;12.20;86.10;;;;;;5069806;28;20489;-61
2022/09/02 04:14:37;;;;;;;20.03;11.60;;;12.90;86.10;;;;;;5075453;28;20516;-61
2022/09/02 04:17:04;;;;;;;20.23;12.63;;;12.90;86.60;;;;;;5071468;28;20922;-61
2022/09/02 04:19:30;;;;;;;23.63;10.03;;;12.90;85.50;;;;;;5072844;28;20889;-61
2022/09/02 04:21:57;;;;;;;19.98;12.38;;;12.90;85.60;;;;;;5072533;28;20482;-61
2022/09/02 04:24:24;;;;;;;15.40;10.20;;;12.90;85.20;;;;;;5071607;28;20540;-61
2022/09/02 04:26:50;;;;;;;19.40;11.47;;;12.90;85.50;;;;;;5069872;28;21060;-60
2022/09/02 04:29:18;;;;;;;15.40;9.77;;;12.90;86.10;;;;;;5073748;28;20490;-61
2022/09/02 04:31:46;;;;;;;12.55;8.60;;;12.90;85.40;;;;;;5072352;28;20236;-61
2022/09/02 04:34:13;;;;;;;18.90;10.53;;;12.90;84.60;;;;;;5066816;28;20314;-61
2022/09/02 04:36:40;;;;;;;11.50;8.03;;;12.80;84.30;;;;;;5070707;28;20478;-61
2022/09/02 04:39:07;;;;;;;19.60;12.77;;;12.70;84.80;;;;;;5063761;28;20562;-61
2022/09/02 04:41:36;;;;;;;19.33;11.90;;;12.70;85.10;;;;;;5072833;28;20537;-61
2022/09/02 04:44:04;;;;;;;18.90;10.73;;;12.60;85.10;;;;;;5070084;28;20531;-61
2022/09/02 04:46:31;;;;;;;16.77;8.70;;;12.60;84.90;;;;;;5073245;28;21014;-60
2022/09/02 04:48:59;;;;;;;26.07;15.17;;;12.60;84.60;;;;;;5071618;28;20845;-60
2022/09/02 04:51:26;;;;;;;12.70;8.60;;;12.50;85.10;;;;;;5067614;28;20489;-61
2022/09/02 04:53:54;;;;;;;17.77;10.40;;;12.50;85.60;;;;;;5081501;28;21069;-61
2022/09/02 04:56:23;;;;;;;13.10;8.70;;;12.50;85.50;;;;;;5054485;28;20472;-60
2022/09/02 04:58:50;;;;;;;12.97;9.30;;;12.50;86.00;;;;;;5073998;28;21171;-61
2022/09/02 05:01:20;;;;;;;15.40;9.30;;;12.50;85.70;;;;;;5073926;28;21280;-61
2022/09/02 05:03:47;;;;;;;13.73;9.50;;;12.40;85.00;;;;;;5071275;28;20786;-61
2022/09/02 05:06:18;;;;;;;17.93;10.77;;;12.40;85.20;;;;;;5065411;28;20239;-60
2022/09/02 05:08:46;;;;;;;11.70;8.13;;;12.40;85.70;;;;;;5067062;28;20616;-61
2022/09/02 05:11:17;;;;;;;12.97;8.20;;;12.40;85.10;;;;;;5071167;28;20818;-60
2022/09/02 05:13:50;;;;;;;13.83;8.63;;;12.30;85.20;;;;;;5070173;28;20491;-61
2022/09/02 05:16:17;;;;;;;16.27;9.30;;;12.30;85.80;;;;;;5072346;28;20908;-61
2022/09/02 05:18:44;;;;;;;11.50;7.93;;;12.40;86.40;;;;;;5067719;28;20496;-60
2022/09/02 05:21:11;;;;;;;18.40;11.83;;;12.30;86.40;;;;;;5080158;28;20943;-60
2022/09/02 05:23:39;;;;;;;15.63;10.57;;;12.50;87.20;;;;;;5067599;28;20707;-61
2022/09/02 05:26:07;;;;;;;24.00;13.80;;;12.50;88.00;;;;;;5070849;28;20585;-61
2022/09/02 05:28:34;;;;;;;16.60;10.10;;;12.50;88.40;;;;;;5072178;28;20244;-60
2022/09/02 05:31:04;;;;;;;20.70;12.20;;;12.70;88.60;;;;;;5071850;28;20750;-60
2022/09/02 05:33:31;;;;;;;18.03;10.33;;;12.70;88.70;;;;;;5070166;28;20994;-60
2022/09/02 05:35:57;;;;;;;21.52;13.98;;;12.80;89.10;;;;;;5071372;28;20486;-61
2022/09/02 05:38:25;;;;;;;19.93;11.10;;;12.80;89.30;;;;;;5072370;28;20748;-61
2022/09/02 05:40:53;;;;;;;16.47;9.60;;;13.00;89.80;;;;;;5071780;28;20522;-61
2022/09/02 05:43:19;;;;;;;22.90;12.63;;;13.00;89.90;;;;;;5071309;28;20493;-61
2022/09/02 05:45:47;;;;;;;12.60;9.10;;;13.10;90.10;;;;;;5070554;28;20489;-61
2022/09/02 05:50:58;;;;;;;22.53;14.30;;;13.30;91.70;;;;;;5072895;28;20509;-61
2022/09/02 05:53:25;;;;;;;20.03;12.70;;;13.30;92.10;;;;;;5071843;28;22139;-61
2022/09/02 05:55:53;;;;;;;14.93;10.50;;;13.40;92.10;;;;;;5071737;28;20486;-61
2022/09/02 05:58:20;;;;;;;18.97;12.03;;;13.50;92.40;;;;;;5073427;28;20470;-61
2022/09/02 06:00:47;;;;;;;11.87;8.20;;;13.70;92.70;;;;;;5072968;28;20497;-61
2022/09/02 06:03:13;;;;;;;17.27;12.97;;;13.70;92.90;;;;;;5067304;28;20482;-60
2022/09/02 06:05:41;;;;;;;16.33;10.40;;;13.80;93.50;;;;;;5069592;28;20478;-60
2022/09/02 06:08:08;;;;;;;16.57;11.83;;;13.80;93.70;;;;;;5076068;28;20562;-61
2022/09/02 06:10:40;;;;;;;12.60;9.27;;;14.00;93.80;;;;;;5073592;28;20493;-61
2022/09/02 06:13:10;;;;;;;22.27;13.90;;;14.10;93.90;;;;;;5069380;28;20482;-60
2022/09/02 06:15:42;;;;;;;13.83;10.63;;;14.20;93.80;;;;;;5070072;28;20482;-61
2022/09/02 06:18:09;;;;;;;18.47;11.43;;;14.40;93.70;;;;;;5068721;28;20994;-61
2022/09/02 06:20:40;;;;;;;15.93;9.80;;;14.40;93.60;;;;;;5071558;28;20501;-61
2022/09/02 06:23:06;;;;;;;20.00;13.87;;;14.70;93.90;;;;;;5070413;28;20627;-61
2022/09/02 06:25:36;;;;;;;16.43;11.17;;;14.80;93.90;;;;;;5068334;28;20854;-61
2022/09/02 06:28:04;;;;;;;13.00;11.07;;;15.30;93.50;;;;;;5067100;28;20486;-61
2022/09/02 06:30:32;;;;;;;16.93;10.00;;;15.90;93.70;;;;;;5069246;28;20490;-62
2022/09/02 06:33:02;;;;;;;14.57;12.13;;;16.70;93.50;;;;;;5072490;28;20718;-62
2022/09/02 06:35:30;;;;;;;13.40;10.03;;;17.90;91.40;;;;;;5057445;28;20483;-61
2022/09/02 06:37:57;;;;;;;13.37;10.03;;;18.00;91.50;;;;;;5070594;28;20852;-62
2022/09/02 06:40:24;;;;;;;13.97;8.43;;;18.80;89.50;;;;;;5071884;28;20467;-62
2022/09/02 06:42:52;;;;;;;9.13;8.17;;;19.60;88.10;;;;;;5073688;28;20568;-61
2022/09/02 06:45:18;;;;;;;10.00;9.00;;;21.20;86.10;;;;;;5075139;28;20482;-63
2022/09/02 06:47:47;;;;;;;9.13;8.20;;;21.30;82.90;;;;;;5066169;28;21254;-62
2022/09/02 06:50:14;;;;;;;7.50;6.70;;;22.10;80.50;;;;;;5081995;28;20326;-62
2022/09/02 06:52:41;;;;;;;7.83;6.90;;;22.70;79.20;;;;;;5075352;28;20967;-62
2022/09/02 06:55:09;;;;;;;8.33;7.53;;;23.30;77.60;;;;;;5072728;28;20998;-62
2022/09/02 06:57:36;;;;;;;5.67;5.10;;;24.00;74.20;;;;;;5074244;28;20545;-63
2022/09/02 07:00:04;;;;;;;8.60;7.90;;;24.60;72.40;;;;;;5075214;28;20468;-63
2022/09/02 07:02:31;;;;;;;6.60;5.97;;;25.00;69.30;;;;;;5061935;28;20493;-64
2022/09/02 07:05:14;;;;;;;7.20;6.50;;;25.00;67.80;;;;;;5069425;28;20467;-63
2022/09/02 07:07:43;;;;;;;6.47;5.97;;;24.80;66.60;;;;;;5064362;28;20506;-63
2022/09/02 07:10:12;;;;;;;5.03;4.57;;;24.70;67.50;;;;;;5074883;28;20513;-63
2022/09/02 07:12:40;;;;;;;4.70;4.40;;;24.50;67.10;;;;;;5075984;28;20477;-63
2022/09/02 07:15:08;;;;;;;6.30;5.80;;;24.40;67.10;;;;;;5071258;28;20983;-63
2022/09/02 07:17:35;;;;;;;8.43;5.17;;;24.40;67.70;;;;;;5074586;28;20888;-64
2022/09/02 07:20:04;;;;;;;10.60;9.80;;;24.30;67.50;;;;;;5059761;28;20581;-64
2022/09/02 07:22:31;;;;;;;5.93;5.33;;;24.30;66.00;;;;;;5061650;28;20482;-64
2022/09/02 07:24:57;;;;;;;6.77;6.10;;;24.20;65.10;;;;;;5069687;28;20482;-63
2022/09/02 07:27:24;;;;;;;7.80;7.20;;;24.20;66.30;;;;;;5060321;28;20475;-64
2022/09/02 07:29:51;;;;;;;4.83;4.43;;;24.00;65.70;;;;;;5067757;28;20996;-64
2022/09/02 07:32:20;;;;;;;6.00;5.57;;;23.90;65.40;;;;;;5071456;28;21194;-64
2022/09/02 07:34:48;;;;;;;6.47;4.57;;;23.90;65.70;;;;;;5062865;28;21099;-63
2022/09/02 07:37:16;;;;;;;5.13;4.73;;;23.70;66.30;;;;;;5069067;28;20491;-63
2022/09/02 07:39:44;;;;;;;5.10;4.60;;;23.70;65.90;;;;;;5071441;28;20486;-63
2022/09/02 07:42:11;;;;;;;5.45;4.95;;;23.60;64.90;;;;;;5069166;28;20482;-63
2022/09/02 07:44:38;;;;;;;6.73;6.03;;;23.60;66.00;;;;;;5068908;28;20234;-64
2022/09/02 07:47:06;;;;;;;9.77;7.83;;;23.70;64.50;;;;;;5071843;28;20803;-63
2022/09/02 07:49:33;;;;;;;8.27;6.93;;;23.90;64.60;;;;;;5060846;28;20629;-63
2022/09/02 07:51:59;;;;;;;8.57;7.10;;;23.90;63.80;;;;;;5068136;28;20993;-66
2022/09/02 07:54:29;;;;;;;6.70;5.97;;;24.00;63.00;;;;;;5068907;28;20479;-65
2022/09/02 07:56:56;;;;;;;9.40;8.00;;;24.10;62.70;;;;;;5069509;28;20780;-61
2022/09/02 07:59:23;;;;;;;5.67;5.07;;;24.10;62.10;;;;;;5068904;28;20515;-65
2022/09/02 08:01:51;;;;;;;7.40;5.95;;;24.20;62.40;;;;;;5067088;28;21009;-64
2022/09/02 08:04:18;;;;;;;6.70;5.13;;;24.30;61.30;;;;;;5064914;28;20237;-64
2022/09/02 08:06:45;;;;;;;5.07;3.80;;;24.40;61.00;;;;;;5076362;28;20488;-62
2022/09/02 08:09:12;;;;;;;8.67;5.50;;;24.30;60.30;;;;;;5066599;28;21026;-64
2022/09/02 08:11:43;;;;;;;9.80;5.83;;;24.60;60.70;;;;;;5068002;28;20928;-64
2022/09/02 08:14:16;;;;;;;6.57;5.70;;;24.70;60.50;;;;;;5056129;28;21159;-61
2022/09/02 08:16:44;;;;;;;6.27;4.87;;;25.00;59.90;;;;;;5059349;28;20491;-64
2022/09/02 08:19:11;;;;;;;8.00;6.40;;;25.00;59.40;;;;;;5059584;28;20466;-64
2022/09/02 08:21:38;;;;;;;5.00;4.10;;;25.30;59.40;;;;;;5068732;28;20493;-63
2022/09/02 08:24:05;;;;;;;7.63;6.77;;;25.40;59.20;;;;;;5068954;28;20602;-61
2022/09/02 08:26:35;;;;;;;5.83;5.33;;;25.40;58.40;;;;;;5072780;28;20601;-64
2022/09/02 08:29:04;;;;;;;13.13;10.40;;;25.20;58.80;;;;;;5064885;28;20489;-61
2022/09/02 08:31:32;;;;;;;9.60;6.20;;;25.40;57.70;;;;;;5067395;28;20476;-61
2022/09/02 08:33:59;;;;;;;8.90;7.70;;;25.40;58.20;;;;;;5064817;28;20494;-63
2022/09/02 08:36:26;;;;;;;7.37;5.73;;;25.50;57.60;;;;;;5066892;28;20894;-63
2022/09/02 08:38:54;;;;;;;6.70;6.00;;;25.20;56.80;;;;;;5069624;28;20515;-62
2022/09/02 08:41:24;;;;;;;6.83;5.67;;;25.40;57.70;;;;;;5068131;28;20481;-61
2022/09/02 08:43:53;;;;;;;7.27;5.57;;;25.60;57.60;;;;;;5052767;28;20487;-62
2022/09/02 08:46:25;;;;;;;8.20;6.50;;;25.80;55.60;;;;;;5072742;28;20474;-62
2022/09/02 08:48:55;;;;;;;4.17;3.70;;;25.90;56.10;;;;;;5067820;28;20666;-65
2022/09/02 08:51:29;;;;;;;4.97;4.47;;;26.00;55.00;;;;;;5068822;28;20484;-62
2022/09/02 08:54:00;;;;;;;6.67;5.47;;;26.10;55.40;;;;;;5068215;28;20488;-65
2022/09/02 08:56:27;;;;;;;8.32;6.15;;;25.90;53.50;;;;;;5068924;28;20471;-61
2022/09/02 08:58:55;;;;;;;8.67;6.87;;;25.60;53.10;;;;;;5069296;28;20650;-65
2022/09/02 09:01:32;;;;;;;5.60;4.83;;;25.80;55.40;;;;;;5070143;28;20663;-61
2022/09/02 09:04:09;;;;;;;8.90;7.23;;;25.90;52.40;;;;;;5069398;28;21108;-62
2022/09/02 09:06:48;;;;;;;3.13;2.83;;;25.90;51.70;;;;;;5066708;28;20478;-64
2022/09/02 09:09:25;;;;;;;7.63;6.47;;;25.90;52.50;;;;;;5056704;28;20468;-62
2022/09/02 09:12:02;;;;;;;4.90;4.27;;;26.00;53.30;;;;;;5058932;28;20481;-62
2022/09/02 09:14:34;;;;;;;8.80;6.30;;;25.50;52.00;;;;;;5068288;28;20493;-65
2022/09/02 09:17:10;;;;;;;7.60;6.37;;;25.50;52.80;;;;;;5066691;28;20486;-63
2022/09/02 09:19:46;;;;;;;8.00;6.35;;;25.90;53.60;;;;;;5066127;28;20492;-64
2022/09/02 09:22:16;;;;;;;5.40;4.50;;;26.10;54.10;;;;;;5067954;28;20239;-61
2022/09/02 09:24:45;;;;;;;6.50;5.27;;;26.30;53.10;;;;;;5063842;28;20477;-64
2022/09/02 09:27:14;;;;;;;6.10;5.37;;;26.70;51.20;;;;;;5065965;28;20477;-63
2022/09/02 09:29:41;;;;;;;5.60;4.13;;;26.60;50.80;;;;;;5069682;28;20679;-62
2022/09/02 09:32:19;;;;;;;7.70;6.63;;;25.90;49.40;;;;;;5063899;28;20489;-65
2022/09/02 09:35:01;;;;;;;5.30;3.33;;;25.90;51.10;;;;;;5067715;28;20891;-67
2022/09/02 09:37:30;;;;;;;5.07;4.50;;;25.70;49.70;;;;;;5055876;28;20538;-63
2022/09/02 09:39:58;;;;;;;8.93;7.43;;;25.70;50.70;;;;;;5069225;28;20505;-65
2022/09/02 09:42:36;;;;;;;6.00;4.87;;;25.90;51.20;;;;;;5068809;28;20810;-64
2022/09/02 09:45:18;;;;;;;9.10;8.00;;;26.50;50.60;;;;;;5067731;28;20670;-65
2022/09/02 09:48:16;;;;;;;6.30;4.70;;;26.40;48.80;;;;;;5067741;28;20497;-66
2022/09/02 09:50:43;;;;;;;5.23;4.20;;;26.60;49.40;;;;;;5068385;28;20851;-62
2022/09/02 09:53:19;;;;;;;6.70;5.43;;;26.60;49.10;;;;;;5068443;28;21021;-62
2022/09/02 09:55:54;;;;;;;5.50;3.70;;;26.90;48.50;;;;;;5057257;28;20812;-65
2022/09/02 09:58:23;;;;;;;7.50;6.03;;;26.60;47.50;;;;;;5058375;28;20469;-64
2022/09/02 10:00:55;;;;;;;4.63;4.20;;;26.80;50.90;;;;;;5068048;28;20485;-66
2022/09/02 10:03:26;;;;;;;5.93;5.33;;;26.60;47.20;;;;;;5056926;28;20489;-62
2022/09/02 10:05:54;;;;;;;8.30;7.00;;;27.00;49.60;;;;;;5066284;28;20496;-66
2022/09/02 10:08:23;;;;;;;7.47;5.60;;;25.10;48.30;;;;;;5067216;28;21235;-66
2022/09/02 10:10:59;;;;;;;6.20;4.50;;;27.50;49.00;;;;;;5054764;28;20635;-65
2022/09/02 10:13:30;;;;;;;6.90;5.87;;;27.50;48.90;;;;;;5056214;28;20478;-63
2022/09/02 10:16:14;;;;;;;5.77;5.20;;;;;;;;;;5066994;28;20457;-62
2022/09/02 10:18:49;;;;;;;7.03;5.17;;;27.80;49.00;;;;;;5065332;28;20460;-62
2022/09/02 10:21:36;;;;;;;5.87;4.87;;;27.60;48.70;;;;;;5066514;28;20478;-66
2022/09/02 10:24:13;;;;;;;8.90;7.40;;;27.50;49.20;;;;;;5060784;28;20839;-62
2022/09/02 10:26:46;;;;;;;5.20;4.15;;;27.70;48.40;;;;;;5067896;28;20513;-63
2022/09/02 10:29:52;;;;;;;5.03;4.53;;;27.70;48.40;;;;;;5067136;28;20247;-61
2022/09/02 10:32:31;;;;;;;6.00;5.40;;;27.80;49.20;;;;;;4982851;28;20459;-63
2022/09/02 10:35:09;;;;;;;8.73;6.97;;;27.40;48.10;;;;;;5012207;28;20478;-66
2022/09/02 10:37:49;;;;;;;4.90;4.43;;;27.20;47.30;;;;;;5038038;28;20487;-63
2022/09/02 10:40:18;;;;;;;9.53;6.97;;;27.40;48.40;;;;;;5064494;28;20262;-63
2022/09/02 10:42:57;;;;;;;10.20;4.00;;;27.40;48.90;;;;;;5057785;28;20559;-66
2022/09/02 10:45:30;;;;;;;4.90;4.40;;;27.60;49.30;;;;;;5049434;28;20472;-63
2022/09/02 10:48:12;;;;;;;9.67;7.20;;;27.70;49.60;;;;;;5065942;28;20674;-64
2022/09/02 10:50:47;;;;;;;4.83;4.33;;;27.80;48.70;;;;;;5066540;28;20509;-66
2022/09/02 10:53:34;;;;;;;5.60;5.00;;;27.90;47.60;;;;;;5062365;28;20456;-63
2022/09/02 10:56:03;;;;;;;10.13;7.50;;;28.00;47.60;;;;;;5062726;28;20623;-64
2022/09/02 10:58:39;;;;;;;7.43;5.27;;;28.10;48.40;;;;;;5065176;28;20488;-64
2022/09/02 11:01:10;;;;;;;5.30;4.80;;;28.20;47.50;;;;;;5066154;28;20489;-65
2022/09/02 11:03:44;;;;;;;5.33;4.67;;;28.20;47.30;;;;;;5066102;28;20609;-63
2022/09/02 11:06:18;;;;;;;6.40;4.90;;;28.20;47.70;;;;;;5057181;28;20542;-64
2022/09/02 11:08:49;;;;;;;3.73;2.97;;;28.10;47.90;;;;;;5070931;28;20476;-63
2022/09/02 11:11:20;;;;;;;9.40;5.57;;;28.20;47.50;;;;;;5067372;28;20889;-65
2022/09/02 11:14:00;;;;;;;2.70;2.50;;;28.30;47.40;;;;;;5065880;28;20466;-65
2022/09/02 11:16:31;;;;;;;7.30;5.93;;;28.40;47.80;;;;;;5053588;28;20436;-65
2022/09/02 11:19:02;;;;;;;6.03;4.77;;;28.10;47.30;;;;;;5066670;28;20454;-62
2022/09/02 11:21:46;;;;;;;4.90;4.43;;;28.00;47.30;;;;;;5064689;28;20478;-65
2022/09/02 11:24:15;;;;;;;4.60;4.20;;;28.00;47.30;;;;;;5065089;28;20508;-63
2022/09/02 11:26:52;;;;;;;8.33;3.77;;;27.90;47.90;;;;;;5065613;28;20482;-67
2022/09/02 11:29:23;;;;;;;7.50;5.30;;;27.80;46.70;;;;;;5069307;28;20479;-64
2022/09/02 11:32:01;;;;;;;3.93;3.53;;;27.60;47.40;;;;;;5068926;28;20474;-63
2022/09/02 11:34:36;;;;;;;9.07;6.30;;;28.30;48.20;;;;;;5033350;28;20481;-63
2022/09/02 11:37:07;;;;;;;10.20;5.97;;;28.00;46.80;;;;;;5077161;28;20513;-63
2022/09/02 11:39:39;;;;;;;8.70;5.40;;;27.70;47.30;;;;;;5073005;28;20478;-65
2022/09/02 11:42:22;;;;;;;7.20;4.10;;;28.10;48.60;;;;;;5073061;28;20444;-65
2022/09/02 11:45:21;;;;;;;6.73;4.20;;;27.90;47.10;;;;;;5072693;28;20449;-63
2022/09/02 11:48:04;;;;;;;3.30;2.83;;;28.10;47.50;;;;;;5054165;28;20453;-63
2022/09/02 11:51:04;;;;;;;8.53;5.73;;;27.90;47.20;;;;;;5042807;28;21287;-63
2022/09/02 11:53:37;;;;;;;4.43;4.03;;;28.10;48.70;;;;;;5041065;28;20460;-62
2022/09/02 11:56:08;;;;;;;3.50;3.20;;;28.30;49.10;;;;;;5051523;28;20467;-64
2022/09/02 11:58:38;;;;;;;5.27;4.30;;;28.40;49.80;;;;;;5050855;28;20479;-62
2022/09/02 12:01:21;;;;;;;2.93;2.07;;;28.80;47.20;;;;;;5052630;28;20446;-62
2022/09/02 12:03:54;;;;;;;3.03;2.70;;;28.90;49.20;;;;;;5052379;28;20465;-63
2022/09/02 12:06:21;;;;;;;2.73;2.47;;;29.00;47.70;;;;;;5052690;28;20470;-62
2022/09/02 12:09:04;;;;;;;3.13;2.30;;;29.10;48.20;;;;;;5052766;28;20462;-65
2022/09/02 12:11:51;;;;;;;4.30;3.20;;;29.20;48.00;;;;;;5053124;28;20463;-62
2022/09/02 12:15:07;;;;;;;2.53;1.87;;;29.30;47.90;;;;;;5049612;28;20995;-64
2022/09/02 12:17:40;;;;;;;2.50;2.30;;;29.20;47.20;;;;;;5055104;28;20449;-63
2022/09/02 12:20:10;;;;;;;3.13;2.60;;;29.00;46.00;;;;;;5068606;28;21671;-64
2022/09/02 12:22:40;;;;;;;5.90;4.37;;;29.10;46.20;;;;;;5049152;28;20486;-64
2022/09/02 12:25:39;;;;;;;3.70;3.03;;;29.10;46.40;;;;;;5049004;28;20489;-62
2022/09/02 12:28:24;;;;;;;6.43;5.33;;;28.50;46.60;;;;;;5049834;28;20561;-63
2022/09/02 12:31:14;;;;;;;7.13;4.10;;;28.50;46.50;;;;;;5067632;28;20994;-65
2022/09/02 12:33:43;;;;;;;4.10;3.70;;;28.40;46.60;;;;;;5058734;28;20461;-64
2022/09/02 12:36:47;;;;;;;2.13;1.93;;;28.80;47.00;;;;;;5068903;28;20917;-64
2022/09/02 12:39:51;;;;;;;2.57;2.37;;;28.90;47.40;;;;;;5059225;28;20481;-64
2022/09/02 12:42:25;;;;;;;4.87;4.00;;;28.60;45.70;;;;;;5049583;28;20672;-63
2022/09/02 12:44:58;;;;;;;4.40;3.73;;;28.60;46.30;;;;;;5046105;28;21184;-66
2022/09/02 12:47:40;;;;;;;2.63;2.43;;;28.80;46.10;;;;;;5067604;28;20896;-64
2022/09/02 12:50:11;;;;;;;6.73;2.50;;;28.90;46.40;;;;;;5058260;28;20449;-66
2022/09/02 12:52:43;;;;;;;2.58;1.85;;;29.20;47.00;;;;;;5068143;28;20478;-64
2022/09/02 12:55:16;;;;;;;2.20;1.73;;;29.30;46.10;;;;;;5064153;28;21484;-62
2022/09/02 12:57:44;;;;;;;2.50;1.73;;;29.40;45.40;;;;;;5064071;28;20469;-65